Time;durP1;ratioP1;P1;durP2;ratioP2;P2;SDS_P1;SDS_P2;PMS_P1;PMS_P2;Temp;Humidity;BMP_temperature;BMP_pressure;BME280_temperature;BME280_humidity;BME280_pressure;Samples;Min_cycle;Max_cycle;Signal;HPM_P1;HPM_P2
2021/10/04 00:01:06;;;;;;;11.52;6.88;;;16.30;99.90;;;15.22;89.61;100285.72;5028388;28;20033;-75
2021/10/04 00:03:33;;;;;;;11.82;6.65;;;16.30;99.90;;;15.20;89.86;100282.31;5028784;28;20546;-75
2021/10/04 00:06:00;;;;;;;13.35;7.43;;;16.30;99.90;;;15.18;89.96;100295.69;5019788;28;20127;-75
2021/10/04 00:08:27;;;;;;;11.43;6.63;;;16.30;99.90;;;15.22;90.02;100302.47;5012788;28;20037;-75
2021/10/04 00:10:53;;;;;;;14.35;6.70;;;16.40;99.90;;;15.25;90.14;100309.34;5019327;28;20022;-74
2021/10/04 00:13:20;;;;;;;12.27;6.57;;;16.30;99.90;;;15.23;90.66;100317.44;5018648;28;20033;-75
2021/10/04 00:15:47;;;;;;;11.57;7.60;;;16.40;99.90;;;15.22;90.49;100326.34;5028716;28;20021;-75
2021/10/04 00:18:13;;;;;;;12.40;7.05;;;16.40;99.90;;;15.30;90.02;100328.44;5023296;28;20033;-75
2021/10/04 00:20:40;;;;;;;12.10;6.75;;;16.50;99.90;;;15.39;89.85;100328.59;5018966;28;21581;-75
2021/10/04 00:23:07;;;;;;;13.93;6.60;;;16.60;99.90;;;15.44;89.80;100338.03;5011153;28;20041;-75
2021/10/04 00:25:33;;;;;;;9.63;6.25;;;16.60;99.90;;;15.47;89.49;100346.63;5027948;28;20032;-75
2021/10/04 00:28:00;;;;;;;11.18;6.03;;;16.60;99.90;;;15.44;90.78;100359.25;5012068;28;20033;-75
2021/10/04 00:30:27;;;;;;;9.85;5.82;;;16.50;99.90;;;15.38;91.38;100365.88;5020829;28;20029;-75
2021/10/04 00:32:54;;;;;;;8.88;5.85;;;16.50;99.90;;;15.33;92.69;100365.34;5021472;28;20543;-75
2021/10/04 00:35:25;;;;;;;10.77;5.82;;;16.40;99.90;;;15.27;93.67;100390.53;5018922;28;20088;-75
2021/10/04 00:37:54;;;;;;;8.80;5.38;;;16.40;99.90;;;15.21;94.65;100396.25;5019444;28;21525;-75
2021/10/04 00:40:32;;;;;;;8.10;5.07;;;16.30;99.90;;;15.17;95.55;100406.22;5037101;28;20064;-74
2021/10/04 00:42:59;;;;;;;5.63;4.28;;;16.40;99.90;;;15.28;95.47;100418.72;5019090;28;20075;-75
2021/10/04 00:45:26;;;;;;;5.25;3.70;;;16.50;99.90;;;15.36;95.54;100413.72;5021417;28;20025;-75
2021/10/04 00:47:53;;;;;;;5.20;2.72;;;16.60;99.90;;;15.50;94.11;100398.63;5041989;28;20087;-75
2021/10/04 00:50:22;;;;;;;8.07;2.63;;;16.60;99.90;;;15.49;94.02;100391.63;5019609;28;20029;-75
2021/10/04 00:52:50;;;;;;;4.32;2.65;;;16.60;99.90;;;15.44;93.97;100393.75;5020500;28;20056;-74
2021/10/04 00:55:17;;;;;;;4.90;2.25;;;16.60;99.90;;;15.47;93.94;100459.88;5019777;28;20029;-75
2021/10/04 00:57:44;;;;;;;4.80;2.38;;;16.60;99.90;;;15.50;93.20;100462.31;5011692;28;20032;-77
2021/10/04 01:00:22;;;;;;;2.25;1.70;;;16.60;99.90;;;15.45;93.83;100583.84;5019677;28;20413;-75
2021/10/04 01:02:48;;;;;;;5.43;2.00;;;16.60;99.90;;;15.36;94.45;100742.69;5028521;28;20437;-75
2021/10/04 01:05:15;;;;;;;3.60;1.85;;;16.50;99.90;;;15.31;94.80;100683.81;5020318;28;21099;-75
2021/10/04 01:07:42;;;;;;;2.40;1.60;;;16.50;99.90;;;15.35;94.11;100685.28;5020024;28;20083;-75
2021/10/04 01:10:11;;;;;;;1.85;1.58;;;16.40;99.90;;;15.25;94.75;100667.41;5025272;28;20048;-75
2021/10/04 01:12:49;;;;;;;2.45;1.58;;;16.40;99.90;;;15.18;95.49;100666.97;5001969;28;20029;-75
2021/10/04 01:15:18;;;;;;;1.00;0.88;;;16.30;99.90;;;15.11;95.18;100660.41;5030080;28;20025;-75
2021/10/04 01:17:44;;;;;;;1.30;1.00;;;16.20;99.90;;;15.05;95.59;100650.19;5021512;28;20042;-75
2021/10/04 01:20:18;;;;;;;1.98;0.90;;;16.20;99.90;;;15.05;94.92;100650.19;5041560;28;20047;-75
2021/10/04 01:22:46;;;;;;;2.10;0.90;;;16.20;99.90;;;15.02;95.34;100655.72;5030342;28;20071;-75
2021/10/04 01:25:15;;;;;;;1.30;0.57;;;16.10;99.90;;;14.94;95.28;100645.59;5005793;28;20041;-75
2021/10/04 01:27:42;;;;;;;0.43;0.40;;;16.10;99.90;;;14.86;95.10;100639.94;5021319;28;20073;-75
2021/10/04 01:30:11;;;;;;;0.98;0.68;;;16.00;99.90;;;14.78;95.58;100637.81;5012635;28;20079;-74
2021/10/04 01:32:39;;;;;;;0.50;0.40;;;15.90;99.90;;;14.75;94.99;100633.56;5035433;28;20491;-75
2021/10/04 01:35:06;;;;;;;1.33;0.45;;;15.90;99.90;;;14.69;95.23;100630.47;5006716;28;20037;-75
2021/10/04 01:37:33;;;;;;;0.63;0.50;;;15.80;99.90;;;14.55;95.94;100626.91;5023486;28;20122;-75
2021/10/04 01:39:59;;;;;;;0.47;0.40;;;15.70;99.90;;;14.45;96.44;100628.44;5023374;28;20029;-75
2021/10/04 01:42:25;;;;;;;1.30;0.63;;;15.60;99.90;;;14.33;96.98;100627.41;5032641;28;20052;-74
2021/10/04 01:44:51;;;;;;;1.55;0.30;;;15.50;99.90;;;14.27;97.33;100629.59;5023396;28;20033;-75
2021/10/04 01:47:17;;;;;;;0.50;0.40;;;15.40;99.90;;;14.14;97.72;100629.53;5022634;28;20144;-75
2021/10/04 01:49:44;;;;;;;0.13;0.13;;;15.30;99.90;;;14.12;97.04;100626.13;5024379;28;20028;-75
2021/10/04 01:52:13;;;;;;;0.57;0.30;;;15.30;99.90;;;14.11;96.46;100624.44;5042845;28;20040;-75
2021/10/04 01:54:40;;;;;;;2.00;0.15;;;15.30;99.90;;;14.09;96.31;100621.03;5033428;28;20187;-75
2021/10/04 01:57:07;;;;;;;0.10;0.10;;;15.20;99.90;;;14.01;96.79;100610.91;5032900;28;20041;-75
2021/10/04 01:59:33;;;;;;;0.10;0.10;;;15.20;99.90;;;13.94;96.98;100614.91;5021247;28;20067;-75
2021/10/04 02:01:59;;;;;;;0.15;0.10;;;15.20;99.90;;;13.98;97.01;100621.69;5030667;28;20047;-75
2021/10/04 02:04:25;;;;;;;0.13;0.10;;;15.10;99.90;;;13.84;97.66;100625.19;5017888;28;20107;-75
2021/10/04 02:06:54;;;;;;;0.10;0.10;;;15.10;99.90;;;13.82;98.25;100626.22;5031781;28;20374;-75
2021/10/04 02:09:20;;;;;;;0.47;0.10;;;15.00;99.90;;;13.78;98.42;100636.19;5027272;28;20641;-75
2021/10/04 02:11:47;;;;;;;0.63;0.20;;;15.00;99.90;;;13.72;98.97;100645.34;5030598;28;20106;-75
2021/10/04 02:14:15;;;;;;;0.20;0.17;;;14.90;99.90;;;13.70;99.46;100649.03;5018238;28;20057;-74
2021/10/04 02:16:41;;;;;;;0.80;0.17;;;14.90;99.90;;;13.71;99.65;100656.00;5045973;28;20083;-75
2021/10/04 02:19:08;;;;;;;1.45;0.10;;;14.90;99.90;;;13.64;100.00;100650.22;5013990;28;20025;-75
2021/10/04 02:21:35;;;;;;;0.20;0.20;;;14.80;99.90;;;13.60;100.00;100656.66;5024177;28;20079;-75
2021/10/04 02:24:02;;;;;;;0.10;0.10;;;14.80;99.90;;;13.52;100.00;100648.34;5020898;28;20440;-75
2021/10/04 02:26:28;;;;;;;0.15;0.15;;;14.80;99.90;;;13.54;100.00;100657.00;5004462;28;20025;-75
2021/10/04 02:28:54;;;;;;;0.10;0.10;;;14.70;99.90;;;13.48;100.00;100658.25;5015262;28;20019;-75
2021/10/04 02:31:20;;;;;;;0.13;0.10;;;14.70;99.90;;;13.46;100.00;100665.44;5029343;28;20033;-75
2021/10/04 02:33:46;;;;;;;1.95;0.10;;;14.70;99.90;;;13.47;100.00;100671.56;5013873;28;20428;-76
2021/10/04 02:36:13;;;;;;;0.52;0.20;;;14.70;99.90;;;13.40;100.00;100686.94;5013447;28;20037;-75
2021/10/04 02:38:39;;;;;;;0.20;0.10;;;14.60;99.90;;;13.22;100.00;100686.22;5021629;28;20028;-75
2021/10/04 02:41:05;;;;;;;0.20;0.13;;;14.50;99.90;;;13.21;100.00;100692.41;5021492;28;20491;-76
2021/10/04 02:43:31;;;;;;;0.65;0.10;;;14.50;99.90;;;13.22;100.00;100695.94;5030411;28;20067;-75
2021/10/04 02:45:57;;;;;;;1.95;0.10;;;14.50;99.90;;;13.22;100.00;100702.06;5007827;28;20025;-75
2021/10/04 02:48:23;;;;;;;0.63;0.20;;;14.50;99.90;;;13.21;100.00;100710.94;5030769;28;20036;-75
2021/10/04 02:50:49;;;;;;;0.95;0.30;;;14.50;99.90;;;13.22;100.00;100730.31;5015471;28;20031;-75
2021/10/04 02:53:15;;;;;;;2.08;0.20;;;14.50;99.90;;;13.21;100.00;100725.94;5019116;28;20519;-75
2021/10/04 02:55:41;;;;;;;2.97;0.30;;;14.50;99.90;;;13.21;100.00;100718.84;5026906;28;20107;-75
2021/10/04 02:58:07;;;;;;;0.65;0.25;;;14.50;99.90;;;13.18;100.00;100715.56;5022106;28;20039;-75
2021/10/04 03:00:37;;;;;;;0.35;0.20;;;14.40;99.90;;;13.11;100.00;100712.41;5046357;28;20099;-75
2021/10/04 03:03:06;;;;;;;0.22;0.10;;;14.30;99.90;;;13.00;100.00;100829.34;5005726;28;20034;-75
2021/10/04 03:05:33;;;;;;;0.88;0.20;;;14.30;99.90;;;12.96;100.00;100808.41;5029941;28;20039;-75
2021/10/04 03:08:00;;;;;;;2.65;0.20;;;14.20;99.90;;;12.97;100.00;100803.06;5005291;28;20021;-74
2021/10/04 03:10:26;;;;;;;0.93;0.30;;;14.20;99.90;;;12.94;100.00;100797.94;5021113;28;20028;-75
2021/10/04 03:12:53;;;;;;;0.63;0.30;;;14.20;99.90;;;12.92;100.00;100800.66;5013774;28;20036;-75
2021/10/04 03:15:19;;;;;;;0.20;0.20;;;14.20;99.90;;;12.95;100.00;100798.78;5021822;28;20025;-75
2021/10/04 03:17:45;;;;;;;3.92;0.40;;;14.20;99.90;;;12.98;100.00;100793.31;5021173;28;20037;-75
2021/10/04 03:20:11;;;;;;;4.95;0.20;;;14.30;99.90;;;12.97;100.00;100791.63;5020935;28;20044;-75
2021/10/04 03:22:37;;;;;;;1.17;0.32;;;14.30;99.90;;;12.95;100.00;100807.56;5011181;28;20392;-75
2021/10/04 03:25:07;;;;;;;2.25;0.32;;;14.30;99.90;;;12.95;100.00;100834.00;5026917;28;20029;-75
2021/10/04 03:27:33;;;;;;;1.00;0.30;;;14.20;99.90;;;12.91;100.00;100830.69;5010412;28;20041;-75
2021/10/04 03:30:00;;;;;;;1.80;0.30;;;14.20;99.90;;;12.95;100.00;100826.06;5022825;28;20044;-75
2021/10/04 03:32:26;;;;;;;2.55;0.20;;;14.20;99.90;;;12.92;100.00;100827.09;5028267;28;20047;-75
2021/10/04 03:34:52;;;;;;;0.65;0.20;;;14.20;99.90;;;12.96;100.00;100834.84;5022609;28;20029;-75
2021/10/04 03:37:18;;;;;;;2.47;0.30;;;14.20;99.90;;;12.97;100.00;100828.63;5035390;28;20041;-75
2021/10/04 03:39:45;;;;;;;2.28;0.40;;;14.20;99.90;;;12.97;100.00;100839.22;5028146;28;20037;-75
2021/10/04 03:42:11;;;;;;;1.98;0.30;;;14.20;99.90;;;12.95;100.00;100841.09;5027797;28;20036;-75
2021/10/04 03:44:37;;;;;;;1.00;0.32;;;;;;;12.95;100.00;100851.66;5020242;28;20462;-75
2021/10/04 03:47:03;;;;;;;3.17;0.40;;;14.20;99.90;;;12.92;100.00;100858.81;5051423;28;20062;-75
2021/10/04 03:49:29;;;;;;;1.98;0.40;;;14.20;99.90;;;12.88;100.00;100867.00;5020838;28;20033;-74
2021/10/04 03:51:55;;;;;;;2.30;0.40;;;14.10;99.90;;;12.83;100.00;100866.38;5030290;28;20026;-75
2021/10/04 03:54:22;;;;;;;1.13;0.40;;;14.10;99.90;;;12.81;100.00;100897.34;5032646;28;20021;-75
2021/10/04 03:56:48;;;;;;;1.35;0.38;;;14.10;99.90;;;12.81;100.00;100935.19;5051886;28;20481;-75
2021/10/04 03:59:14;;;;;;;1.42;0.30;;;14.10;99.90;;;12.77;100.00;100915.13;5029950;28;20048;-75
2021/10/04 04:01:40;;;;;;;1.23;0.28;;;14.00;99.90;;;12.72;100.00;100898.66;5011660;28;20074;-75
2021/10/04 04:04:06;;;;;;;0.60;0.30;;;14.00;99.90;;;12.73;100.00;100881.88;5013827;28;20029;-75
2021/10/04 04:06:32;;;;;;;0.63;0.28;;;14.00;99.90;;;12.72;100.00;100888.06;5026269;28;20093;-75
2021/10/04 04:08:58;;;;;;;2.38;0.30;;;14.00;99.90;;;12.70;100.00;100877.63;5022006;28;20032;-75
2021/10/04 04:11:25;;;;;;;0.40;0.30;;;14.00;99.90;;;12.68;100.00;100870.72;5021465;28;20139;-74
2021/10/04 04:13:51;;;;;;;1.58;0.50;;;14.00;99.90;;;12.66;100.00;100883.16;5027523;28;20075;-75
2021/10/04 04:16:17;;;;;;;1.23;0.30;;;13.90;99.90;;;12.61;100.00;100880.75;5021281;28;20021;-75
2021/10/04 04:18:43;;;;;;;1.15;0.43;;;13.90;99.90;;;12.58;100.00;100874.75;5020099;28;20053;-75
2021/10/04 04:21:09;;;;;;;1.45;0.40;;;13.90;99.90;;;12.55;100.00;100870.50;5012259;28;20489;-75
2021/10/04 04:23:36;;;;;;;0.88;0.30;;;13.80;99.90;;;12.51;100.00;100863.66;5020418;28;20021;-75
2021/10/04 04:26:02;;;;;;;0.30;0.30;;;13.80;99.90;;;12.48;100.00;100871.72;5021289;28;20036;-75
2021/10/04 04:28:28;;;;;;;2.40;0.40;;;13.70;99.90;;;12.46;100.00;100892.97;5020599;28;20519;-75
2021/10/04 04:30:54;;;;;;;0.28;0.20;;;13.70;99.90;;;12.42;100.00;100949.50;5020704;28;20181;-75
2021/10/04 04:33:20;;;;;;;3.40;0.40;;;13.60;99.90;;;12.40;100.00;100929.41;5012248;28;20091;-75
2021/10/04 04:35:46;;;;;;;3.92;0.30;;;13.60;99.90;;;12.36;100.00;100981.50;5010731;28;20033;-75
2021/10/04 04:38:12;;;;;;;0.80;0.30;;;13.60;99.90;;;12.31;100.00;101063.59;5030851;28;20025;-75
2021/10/04 04:40:38;;;;;;;0.30;0.15;;;13.50;99.90;;;12.26;100.00;101060.28;5019200;28;20044;-75
2021/10/04 04:43:05;;;;;;;1.15;0.10;;;;;;;12.23;100.00;101067.53;5005159;28;20071;-74
2021/10/04 04:45:31;;;;;;;0.65;0.10;;;13.40;99.90;;;12.19;100.00;101079.16;5047262;28;20033;-74
2021/10/04 04:47:56;;;;;;;0.20;0.20;;;13.40;99.90;;;12.15;100.00;101130.38;5019835;28;20086;-75
2021/10/04 04:50:23;;;;;;;0.50;0.10;;;13.40;99.90;;;12.12;100.00;101054.84;5031257;28;20545;-75
2021/10/04 04:52:49;;;;;;;1.33;0.20;;;13.30;99.90;;;12.09;100.00;101052.34;5015196;28;20226;-75
2021/10/04 04:55:16;;;;;;;0.10;0.10;;;13.40;99.90;;;12.05;100.00;101051.66;5023969;28;20029;-74
2021/10/04 04:57:43;;;;;;;0.60;0.10;;;13.30;99.90;;;12.03;100.00;101039.41;5022528;28;20112;-75
2021/10/04 05:00:11;;;;;;;0.35;0.10;;;13.20;99.90;;;12.02;100.00;101038.56;5021722;28;20481;-75
2021/10/04 05:02:37;;;;;;;1.20;0.15;;;13.30;99.90;;;12.01;100.00;101039.53;5030725;28;20079;-75
2021/10/04 05:05:08;;;;;;;0.32;0.20;;;13.20;99.90;;;11.98;100.00;101057.28;5040744;28;20269;-75
2021/10/04 05:07:36;;;;;;;0.70;0.20;;;13.20;99.90;;;11.96;100.00;101045.94;5029883;28;20398;-74
2021/10/04 05:10:04;;;;;;;0.90;0.10;;;13.20;99.90;;;11.93;100.00;101048.72;5024565;28;20985;-75
2021/10/04 05:12:30;;;;;;;0.30;0.10;;;13.20;99.90;;;11.90;100.00;101033.91;5030684;28;20477;-75
2021/10/04 05:14:56;;;;;;;0.20;0.10;;;13.10;99.90;;;11.90;100.00;101039.19;5024754;28;20028;-75
2021/10/04 05:17:22;;;;;;;0.10;0.10;;;13.10;99.90;;;11.87;100.00;101034.84;5021496;28;20017;-75
2021/10/04 05:19:48;;;;;;;0.90;0.40;;;13.10;99.90;;;11.86;100.00;101032.28;5024167;28;20086;-74
2021/10/04 05:22:14;;;;;;;0.43;0.20;;;13.10;99.90;;;11.85;100.00;101038.50;5022201;28;20475;-75
2021/10/04 05:24:40;;;;;;;1.05;0.43;;;13.10;99.90;;;11.84;100.00;101039.44;5030112;28;20112;-75
2021/10/04 05:27:06;;;;;;;0.20;0.13;;;13.10;99.90;;;11.81;100.00;101037.75;5024584;28;20158;-74
2021/10/04 05:29:32;;;;;;;0.63;0.30;;;13.10;99.90;;;11.80;100.00;101030.78;5031783;28;20075;-75
2021/10/04 05:31:58;;;;;;;1.85;0.40;;;13.00;99.90;;;11.80;100.00;101022.88;5014769;28;21042;-74
2021/10/04 05:34:24;;;;;;;1.20;0.40;;;13.10;99.90;;;11.78;100.00;101027.38;5014571;28;20035;-75
2021/10/04 05:36:50;;;;;;;1.35;0.30;;;13.00;99.90;;;11.76;100.00;101026.59;5023720;28;20071;-74
2021/10/04 05:39:16;;;;;;;0.68;0.28;;;13.00;99.90;;;11.75;100.00;101016.09;5044232;28;20502;-74
2021/10/04 05:41:44;;;;;;;0.90;0.30;;;13.00;99.90;;;11.74;100.00;101122.56;5007178;28;20043;-75
2021/10/04 05:44:10;;;;;;;3.15;0.60;;;13.00;99.90;;;11.71;100.00;101126.19;5030983;28;20029;-75
2021/10/04 05:46:36;;;;;;;1.70;0.60;;;13.00;99.90;;;11.68;100.00;101095.53;5030968;28;20022;-75
2021/10/04 05:49:03;;;;;;;1.58;0.50;;;12.90;99.90;;;11.65;100.00;101153.69;5021946;28;20061;-75
2021/10/04 05:51:29;;;;;;;1.77;0.70;;;12.90;99.90;;;11.66;100.00;101104.41;5024722;28;20017;-74
2021/10/04 05:53:55;;;;;;;1.05;0.60;;;12.90;99.90;;;11.67;100.00;101088.53;5024140;28;20043;-75
2021/10/04 05:56:21;;;;;;;0.82;0.60;;;12.90;99.90;;;11.68;100.00;101076.19;5021166;28;20041;-75
2021/10/04 05:58:47;;;;;;;0.57;0.47;;;12.90;99.90;;;11.70;100.00;101079.63;5029464;28;20065;-74
2021/10/04 06:01:13;;;;;;;0.63;0.50;;;13.00;99.90;;;11.70;100.00;101084.91;5047437;28;20044;-75
2021/10/04 06:03:39;;;;;;;1.40;0.40;;;13.00;99.90;;;11.70;100.00;101084.91;5036643;28;20063;-75
2021/10/04 06:06:05;;;;;;;2.22;0.40;;;12.90;99.90;;;11.69;100.00;101086.69;5031647;28;20033;-75
2021/10/04 06:08:31;;;;;;;2.78;0.52;;;12.90;99.90;;;11.69;100.00;101096.38;5020744;28;20024;-75
2021/10/04 06:10:57;;;;;;;1.55;0.40;;;12.90;99.90;;;11.71;100.00;101089.25;5015023;28;20066;-74
2021/10/04 06:13:24;;;;;;;1.10;0.38;;;12.90;99.90;;;11.71;100.00;101102.44;5021286;28;20087;-75
2021/10/04 06:15:50;;;;;;;0.95;0.40;;;13.00;99.90;;;11.75;100.00;101108.44;5031079;28;20111;-75
2021/10/04 06:18:16;;;;;;;1.85;0.60;;;13.00;99.90;;;11.76;100.00;101187.50;5020854;28;20050;-75
2021/10/04 06:20:42;;;;;;;2.08;0.50;;;13.10;99.90;;;11.78;100.00;101137.31;5024162;28;20071;-75
2021/10/04 06:23:09;;;;;;;3.15;0.30;;;13.10;99.90;;;11.80;100.00;101149.50;5022833;28;20033;-75
2021/10/04 06:25:36;;;;;;;1.55;0.47;;;13.10;99.90;;;11.84;100.00;101131.78;5029839;28;21122;-75
2021/10/04 06:28:02;;;;;;;2.60;0.40;;;13.20;99.90;;;11.89;100.00;101132.44;5030113;28;20062;-75
2021/10/04 06:30:29;;;;;;;1.08;0.30;;;13.20;99.90;;;11.94;100.00;101138.34;5029296;28;20037;-75
2021/10/04 06:32:55;;;;;;;4.53;0.95;;;13.30;99.90;;;11.98;100.00;101139.09;5022672;28;20036;-75
2021/10/04 06:35:21;;;;;;;1.70;0.20;;;13.30;99.90;;;11.99;100.00;101127.63;5045384;28;20107;-74
2021/10/04 06:37:47;;;;;;;1.50;0.57;;;13.20;99.90;;;11.99;99.84;101120.53;5023555;28;20440;-75
2021/10/04 06:40:16;;;;;;;1.48;0.30;;;13.20;99.90;;;11.99;100.00;101106.50;5007088;28;20156;-75
2021/10/04 06:42:45;;;;;;;3.60;0.40;;;13.20;99.90;;;11.99;99.44;101128.47;5031689;28;20025;-75
2021/10/04 06:45:11;;;;;;;1.60;0.32;;;13.20;99.90;;;11.98;98.52;101123.25;5022170;28;21820;-75
2021/10/04 06:47:37;;;;;;;1.23;0.30;;;13.30;99.90;;;12.00;98.61;101135.44;5005241;28;20064;-75
2021/10/04 06:50:04;;;;;;;1.77;0.32;;;13.20;99.90;;;12.01;98.31;101134.53;5015593;28;20075;-75
2021/10/04 06:52:30;;;;;;;1.25;0.40;;;13.20;99.90;;;12.04;98.13;101144.09;5031915;28;20021;-75
2021/10/04 06:54:57;;;;;;;3.30;0.50;;;13.20;99.90;;;12.07;97.97;101154.47;5028200;28;20017;-75
2021/10/04 06:57:23;;;;;;;1.23;0.32;;;13.30;99.90;;;12.08;97.69;101154.44;5022891;28;20045;-75
2021/10/04 06:59:49;;;;;;;1.65;0.47;;;13.30;99.90;;;12.12;97.82;101147.22;5021670;28;20041;-75
2021/10/04 07:02:15;;;;;;;0.93;0.30;;;13.30;99.90;;;12.18;98.00;101162.78;5038518;28;20029;-75
2021/10/04 07:04:41;;;;;;;0.57;0.55;;;13.40;99.90;;;12.31;97.79;101157.81;5021312;28;20059;-75
2021/10/04 07:07:08;;;;;;;1.38;0.63;;;13.50;99.90;;;12.51;95.92;101149.78;5029122;28;20028;-75
2021/10/04 07:09:35;;;;;;;3.70;0.50;;;13.70;99.90;;;12.69;94.75;101147.16;5020781;28;20059;-74
2021/10/04 07:12:02;;;;;;;1.27;0.40;;;13.90;99.90;;;12.87;93.82;101145.41;5020441;28;20373;-75
2021/10/04 07:14:28;;;;;;;0.32;0.30;;;14.00;99.90;;;12.96;92.17;101150.25;5012284;28;20068;-75
2021/10/04 07:16:55;;;;;;;0.82;0.30;;;14.00;99.90;;;12.96;91.03;101149.38;5011214;28;20017;-75
2021/10/04 07:19:21;;;;;;;10.05;0.40;;;14.10;99.90;;;12.97;91.33;101151.94;5013540;28;20511;-75
2021/10/04 07:21:52;;;;;;;2.53;0.60;;;14.10;99.90;;;12.97;90.87;101144.03;5027626;28;20473;-75
2021/10/04 07:24:20;;;;;;;3.50;0.30;;;14.10;99.90;;;13.01;91.12;101164.09;5021270;28;20038;-75
2021/10/04 07:26:47;;;;;;;1.05;0.30;;;14.10;99.90;;;13.03;90.41;101161.38;5021096;28;20082;-75
2021/10/04 07:29:15;;;;;;;2.38;0.38;;;14.20;99.90;;;13.07;90.15;101157.66;5022105;28;20029;-75
2021/10/04 07:31:41;;;;;;;3.20;0.30;;;14.20;99.90;;;13.14;90.15;101161.69;5018522;28;20399;-75
2021/10/04 07:34:08;;;;;;;1.20;0.30;;;14.30;99.90;;;13.22;90.21;101180.66;5024008;28;20029;-75
2021/10/04 07:36:35;;;;;;;3.85;0.65;;;14.40;99.90;;;13.32;89.73;101189.84;5028487;28;20064;-75
2021/10/04 07:39:05;;;;;;;2.45;0.35;;;14.50;99.90;;;13.34;88.70;101168.63;5020761;28;20645;-75
2021/10/04 07:41:34;;;;;;;2.35;0.35;;;14.50;99.90;;;13.36;89.11;101184.44;5019979;28;20126;-75
2021/10/04 07:44:00;;;;;;;1.95;0.50;;;14.50;99.90;;;13.32;87.76;101170.50;5021982;28;20568;-74
2021/10/04 07:46:26;;;;;;;1.65;0.30;;;14.50;99.90;;;13.38;88.43;101187.84;5002646;28;20596;-74
2021/10/04 07:48:53;;;;;;;2.28;0.50;;;14.50;99.90;;;13.43;87.99;101177.88;5029422;28;20048;-75
2021/10/04 07:51:20;;;;;;;0.50;0.30;;;14.60;99.90;;;13.50;87.89;101188.09;5020226;28;20033;-75
2021/10/04 07:53:47;;;;;;;2.00;0.50;;;14.60;99.90;;;13.50;88.26;101179.31;5021480;28;20103;-75
2021/10/04 07:56:13;;;;;;;2.92;0.32;;;14.60;99.90;;;13.58;87.91;101185.03;5020559;28;20026;-75
2021/10/04 07:58:39;;;;;;;0.98;0.32;;;14.70;99.90;;;13.63;87.41;101176.84;5018250;28;20120;-75
2021/10/04 08:01:05;;;;;;;0.60;0.20;;;14.70;99.90;;;13.64;86.19;101162.69;5021471;28;20033;-75
2021/10/04 08:03:31;;;;;;;2.92;0.30;;;14.70;99.90;;;13.65;86.03;101170.56;5019897;28;20086;-75
2021/10/04 08:05:57;;;;;;;1.20;0.45;;;14.70;99.90;;;13.50;85.47;101155.50;5032794;28;20021;-75
2021/10/04 08:08:23;;;;;;;2.38;0.28;;;14.60;99.90;;;13.49;86.39;101159.91;5021298;28;20105;-75
2021/10/04 08:10:49;;;;;;;2.47;0.60;;;14.60;99.90;;;13.47;85.41;101139.75;5025062;28;20079;-75
2021/10/04 08:13:15;;;;;;;1.25;0.30;;;14.60;99.90;;;13.46;84.83;101140.72;5025579;28;20021;-75
2021/10/04 08:15:42;;;;;;;5.63;0.40;;;14.60;99.90;;;13.53;85.79;101156.16;5008381;28;20029;-75
2021/10/04 08:18:08;;;;;;;1.67;0.30;;;14.60;99.90;;;13.58;84.94;101147.13;5015148;28;20033;-75
2021/10/04 08:20:35;;;;;;;1.38;0.50;;;14.70;99.90;;;13.62;85.41;101154.81;5028269;28;20072;-75
2021/10/04 08:23:01;;;;;;;1.50;0.40;;;14.70;99.90;;;13.62;84.84;101165.41;5018502;28;20029;-75
2021/10/04 08:25:27;;;;;;;2.13;0.40;;;14.70;99.90;;;13.58;84.65;101161.22;5016682;28;20029;-75
2021/10/04 08:27:53;;;;;;;3.08;0.40;;;14.70;99.90;;;13.54;83.55;101157.00;5015955;28;20033;-75
2021/10/04 08:30:19;;;;;;;2.58;0.70;;;14.60;99.90;;;13.51;84.12;101157.19;5025289;28;20125;-75
2021/10/04 08:32:47;;;;;;;1.50;0.40;;;14.60;99.90;;;13.47;83.59;101155.63;5035585;28;20033;-75
2021/10/04 08:35:14;;;;;;;2.17;0.52;;;14.60;99.90;;;13.41;82.81;101145.38;5041858;28;20072;-75
2021/10/04 08:37:40;;;;;;;1.23;0.38;;;14.50;99.90;;;13.42;84.24;101147.09;5024793;28;20523;-75
2021/10/04 08:40:15;;;;;;;1.60;0.60;;;14.60;99.90;;;13.45;83.88;101147.75;5014196;28;20414;-75
2021/10/04 08:42:44;;;;;;;2.38;0.60;;;14.60;99.90;;;13.51;84.76;101167.75;5035638;28;20033;-75
2021/10/04 08:45:12;;;;;;;1.80;0.57;;;14.60;99.90;;;13.50;85.47;101158.13;5032957;28;20044;-75
2021/10/04 08:49:19;;;;;;;2.63;0.57;;;14.60;99.90;;;13.53;84.47;101156.16;5060269;27;20373;-76
2021/10/04 08:51:50;;;;;;;2.53;0.50;;;14.60;99.90;;;13.47;85.15;101158.28;5040462;28;20029;-76
2021/10/04 08:54:24;;;;;;;4.15;0.68;;;14.50;99.90;;;13.43;85.14;101154.91;5030636;28;20059;-76
2021/10/04 08:56:51;;;;;;;3.92;0.80;;;14.50;99.90;;;13.40;84.63;101148.97;5028161;28;20017;-77
2021/10/04 08:59:18;;;;;;;4.68;0.80;;;14.50;99.90;;;13.31;84.87;101148.50;5035558;28;20030;-76
2021/10/04 09:01:44;;;;;;;2.10;0.57;;;14.40;99.90;;;13.30;85.80;101161.78;5016074;28;20049;-77
2021/10/04 09:04:10;;;;;;;2.92;0.57;;;14.40;99.90;;;13.32;85.12;101152.81;5035591;28;20025;-77
2021/10/04 09:06:40;;;;;;;3.60;0.70;;;14.50;99.90;;;13.41;86.24;101177.09;5013961;28;20469;-77
2021/10/04 09:09:11;;;;;;;4.88;0.77;;;14.60;99.90;;;13.49;85.98;101183.72;5015471;28;20476;-76
2021/10/04 09:11:49;;;;;;;3.58;0.70;;;14.60;99.90;;;13.61;85.49;101192.81;5033556;28;21132;-77
2021/10/04 09:14:31;;;;;;;6.63;0.70;;;14.70;99.90;;;13.68;84.07;101190.72;5017005;28;20538;-76
2021/10/04 09:17:04;;;;;;;10.73;0.98;;;14.80;99.90;;;13.73;84.89;101202.75;5039680;28;20037;-76
2021/10/04 09:19:36;;;;;;;3.75;0.73;;;14.80;99.90;;;13.73;84.32;101200.09;5018704;28;20097;-77
2021/10/04 09:22:14;;;;;;;3.13;0.65;;;14.80;99.90;;;13.66;83.10;101188.13;5031997;28;20560;-76
2021/10/04 09:24:59;;;;;;;2.38;0.77;;;14.70;99.90;;;13.61;83.71;101191.97;5033976;28;20493;-77
2021/10/04 09:27:33;;;;;;;2.05;0.60;;;14.70;99.90;;;13.64;85.27;101195.28;4997934;28;20110;-77
2021/10/04 09:30:26;;;;;;;4.20;0.77;;;14.70;99.90;;;13.61;85.83;101211.34;5000238;28;20030;-77
2021/10/04 09:33:01;;;;;;;1.38;0.57;;;14.70;99.90;;;13.65;85.96;101217.31;5007269;28;20046;-77
2021/10/04 09:35:33;;;;;;;6.28;1.00;;;14.80;99.90;;;13.65;85.97;101207.59;5016198;28;20112;-76
2021/10/04 09:37:59;;;;;;;5.07;1.67;;;14.80;99.90;;;13.67;85.41;101197.81;5030177;28;20540;-76
2021/10/04 09:40:46;;;;;;;9.63;1.70;;;14.80;99.90;;;13.73;84.86;101191.31;5018671;28;20120;-76
2021/10/04 09:43:28;;;;;;;4.47;2.00;;;14.90;99.90;;;13.84;84.67;101185.44;5021146;28;20029;-77
2021/10/04 09:46:08;;;;;;;13.13;2.45;;;14.90;99.90;;;13.92;84.00;101180.63;5039419;28;20075;-77
2021/10/04 09:48:35;;;;;;;6.40;2.50;;;15.10;99.90;;;14.11;84.43;101189.28;4996377;28;20078;-77
2021/10/04 09:51:18;;;;;;;9.82;2.45;;;15.20;99.90;;;14.34;82.60;101182.75;5036032;28;20032;-76
2021/10/04 09:54:08;;;;;;;8.07;2.53;;;15.40;99.90;;;14.58;82.72;101192.94;5032900;28;20702;-76
2021/10/04 09:56:35;;;;;;;8.23;1.90;;;15.60;99.90;;;14.62;81.26;101188.31;5006819;28;20036;-77
2021/10/04 09:59:01;;;;;;;6.72;1.67;;;15.60;99.90;;;14.54;81.27;101180.78;5028044;28;20382;-77
2021/10/04 10:01:27;;;;;;;4.40;1.42;;;15.50;99.90;;;14.37;80.81;101165.81;5007706;28;20176;-77
2021/10/04 10:03:55;;;;;;;6.10;1.08;;;15.30;99.90;;;14.21;81.04;101164.94;5021541;28;20105;-77
2021/10/04 10:06:22;;;;;;;6.00;1.00;;;15.20;99.90;;;14.16;81.63;101158.09;5019572;28;20045;-76
2021/10/04 10:08:49;;;;;;;2.85;1.20;;;15.30;99.90;;;14.22;81.66;101159.56;4992272;28;20489;-77
2021/10/04 10:11:17;;;;;;;4.15;1.10;;;15.30;99.90;;;14.33;81.46;101166.91;5003148;28;20068;-77
2021/10/04 10:13:45;;;;;;;4.35;1.10;;;15.40;99.90;;;14.43;82.26;101180.53;5018451;28;20057;-76